sensor_id;sensor_type;location;lat;lon;timestamp;P1;durP1;ratioP1;P2;durP2;ratioP2
67675;SDS011;54456;48.436;10.028;2023-05-10T03:16:12;1.35;;;0.82;;
67675;SDS011;54456;48.436;10.028;2023-05-10T03:18:44;2.70;;;1.00;;
67675;SDS011;54456;48.436;10.028;2023-05-10T03:21:17;1.75;;;0.82;;
67675;SDS011;54456;48.436;10.028;2023-05-10T03:23:43;1.77;;;0.90;;
67675;SDS011;54456;48.436;10.028;2023-05-10T03:26:07;3.55;;;1.30;;
67675;SDS011;54456;48.436;10.028;2023-05-10T03:28:33;3.42;;;1.10;;
67675;SDS011;54456;48.436;10.028;2023-05-10T03:31:05;1.90;;;1.10;;
67675;SDS011;54456;48.436;10.028;2023-05-10T03:33:34;1.75;;;1.10;;
67675;SDS011;54456;48.436;10.028;2023-05-10T03:36:06;2.05;;;1.17;;
67675;SDS011;54456;48.436;10.028;2023-05-10T03:38:34;2.03;;;1.13;;
67675;SDS011;54456;48.436;10.028;2023-05-10T03:41:03;2.70;;;1.10;;
67675;SDS011;54456;48.436;10.028;2023-05-10T03:43:33;4.47;;;1.70;;
67675;SDS011;54456;48.436;10.028;2023-05-10T03:46:03;2.88;;;1.23;;
67675;SDS011;54456;48.436;10.028;2023-05-10T03:48:29;3.45;;;1.60;;
67675;SDS011;54456;48.436;10.028;2023-05-10T03:50:52;2.95;;;1.40;;
67675;SDS011;54456;48.436;10.028;2023-05-10T03:53:15;2.78;;;1.35;;
67675;SDS011;54456;48.436;10.028;2023-05-10T03:55:44;4.57;;;1.50;;
67675;SDS011;54456;48.436;10.028;2023-05-10T03:58:10;5.40;;;1.65;;
67675;SDS011;54456;48.436;10.028;2023-05-10T04:00:37;3.50;;;1.20;;
67675;SDS011;54456;48.436;10.028;2023-05-10T04:03:00;3.40;;;1.35;;
67675;SDS011;54456;48.436;10.028;2023-05-10T04:05:23;2.92;;;1.35;;
67675;SDS011;54456;48.436;10.028;2023-05-10T04:07:45;3.97;;;1.45;;
67675;SDS011;54456;48.436;10.028;2023-05-10T04:10:11;3.13;;;1.42;;
67675;SDS011;54456;48.436;10.028;2023-05-10T04:12:37;3.50;;;1.52;;
67675;SDS011;54456;48.436;10.028;2023-05-10T04:15:03;3.90;;;1.50;;
67675;SDS011;54456;48.436;10.028;2023-05-10T04:17:26;3.83;;;1.58;;
67675;SDS011;54456;48.436;10.028;2023-05-10T04:19:49;3.95;;;1.55;;
67675;SDS011;54456;48.436;10.028;2023-05-10T04:22:12;5.07;;;1.75;;
67675;SDS011;54456;48.436;10.028;2023-05-10T04:24:34;3.88;;;1.73;;
67675;SDS011;54456;48.436;10.028;2023-05-10T04:26:57;5.00;;;1.90;;
67675;SDS011;54456;48.436;10.028;2023-05-10T04:29:20;5.93;;;1.70;;
67675;SDS011;54456;48.436;10.028;2023-05-10T04:31:43;4.90;;;2.03;;
67675;SDS011;54456;48.436;10.028;2023-05-10T04:34:06;4.97;;;1.92;;
67675;SDS011;54456;48.436;10.028;2023-05-10T04:36:29;4.40;;;1.92;;
67675;SDS011;54456;48.436;10.028;2023-05-10T04:38:52;5.32;;;1.90;;
67675;SDS011;54456;48.436;10.028;2023-05-10T04:41:15;5.72;;;2.13;;
67675;SDS011;54456;48.436;10.028;2023-05-10T04:43:38;6.03;;;2.22;;
67675;SDS011;54456;48.436;10.028;2023-05-10T04:46:04;5.35;;;1.95;;
67675;SDS011;54456;48.436;10.028;2023-05-10T04:48:28;5.57;;;2.13;;
67675;SDS011;54456;48.436;10.028;2023-05-10T04:50:50;7.10;;;2.20;;
67675;SDS011;54456;48.436;10.028;2023-05-10T04:53:13;5.07;;;2.10;;
67675;SDS011;54456;48.436;10.028;2023-05-10T04:55:36;4.93;;;2.03;;
67675;SDS011;54456;48.436;10.028;2023-05-10T04:57:59;5.50;;;2.03;;
67675;SDS011;54456;48.436;10.028;2023-05-10T05:00:22;5.68;;;2.03;;
67675;SDS011;54456;48.436;10.028;2023-05-10T05:02:45;6.72;;;2.05;;
67675;SDS011;54456;48.436;10.028;2023-05-10T05:05:08;7.38;;;2.20;;
67675;SDS011;54456;48.436;10.028;2023-05-10T05:07:31;5.32;;;1.75;;
67675;SDS011;54456;48.436;10.028;2023-05-10T05:09:54;7.75;;;2.22;;
67675;SDS011;54456;48.436;10.028;2023-05-10T05:12:20;5.70;;;1.88;;
67675;SDS011;54456;48.436;10.028;2023-05-10T05:14:42;7.25;;;2.20;;
67675;SDS011;54456;48.436;10.028;2023-05-10T05:17:05;6.65;;;2.38;;
67675;SDS011;54456;48.436;10.028;2023-05-10T05:19:28;6.05;;;2.08;;
67675;SDS011;54456;48.436;10.028;2023-05-10T05:21:53;5.65;;;1.95;;
67675;SDS011;54456;48.436;10.028;2023-05-10T05:24:16;6.25;;;2.13;;
67675;SDS011;54456;48.436;10.028;2023-05-10T05:26:39;5.20;;;1.95;;
67675;SDS011;54456;48.436;10.028;2023-05-10T05:29:02;5.82;;;2.50;;
67675;SDS011;54456;48.436;10.028;2023-05-10T05:31:25;6.43;;;1.90;;
67675;SDS011;54456;48.436;10.028;2023-05-10T05:33:49;6.50;;;2.05;;
67675;SDS011;54456;48.436;10.028;2023-05-10T05:36:12;6.65;;;2.25;;
67675;SDS011;54456;48.436;10.028;2023-05-10T05:38:35;5.70;;;2.35;;
67675;SDS011;54456;48.436;10.028;2023-05-10T05:40:58;5.40;;;2.10;;
67675;SDS011;54456;48.436;10.028;2023-05-10T05:43:20;4.78;;;1.90;;
67675;SDS011;54456;48.436;10.028;2023-05-10T05:45:43;7.30;;;2.30;;
67675;SDS011;54456;48.436;10.028;2023-05-10T05:48:06;6.55;;;2.03;;
67675;SDS011;54456;48.436;10.028;2023-05-10T05:50:29;6.03;;;2.13;;
67675;SDS011;54456;48.436;10.028;2023-05-10T05:52:52;7.25;;;2.30;;
67675;SDS011;54456;48.436;10.028;2023-05-10T05:55:15;6.18;;;2.13;;
67675;SDS011;54456;48.436;10.028;2023-05-10T05:57:39;4.63;;;1.92;;
67675;SDS011;54456;48.436;10.028;2023-05-10T06:00:02;5.25;;;1.95;;
67675;SDS011;54456;48.436;10.028;2023-05-10T06:02:25;5.45;;;1.80;;
67675;SDS011;54456;48.436;10.028;2023-05-10T06:04:48;4.30;;;1.80;;
67675;SDS011;54456;48.436;10.028;2023-05-10T06:07:11;5.07;;;1.88;;
67675;SDS011;54456;48.436;10.028;2023-05-10T06:09:34;5.57;;;2.00;;
67675;SDS011;54456;48.436;10.028;2023-05-10T06:11:56;3.85;;;1.83;;
67675;SDS011;54456;48.436;10.028;2023-05-10T06:14:20;4.50;;;1.77;;
67675;SDS011;54456;48.436;10.028;2023-05-10T06:16:43;4.28;;;1.85;;
67675;SDS011;54456;48.436;10.028;2023-05-10T06:19:05;6.50;;;1.90;;
67675;SDS011;54456;48.436;10.028;2023-05-10T06:21:28;5.07;;;2.05;;
67675;SDS011;54456;48.436;10.028;2023-05-10T06:23:54;8.02;;;2.00;;
67675;SDS011;54456;48.436;10.028;2023-05-10T06:26:20;6.18;;;2.20;;
67675;SDS011;54456;48.436;10.028;2023-05-10T06:28:42;7.32;;;2.35;;
67675;SDS011;54456;48.436;10.028;2023-05-10T06:31:06;6.15;;;2.03;;
67675;SDS011;54456;48.436;10.028;2023-05-10T06:33:28;7.95;;;2.40;;
67675;SDS011;54456;48.436;10.028;2023-05-10T06:35:51;7.75;;;2.10;;
67675;SDS011;54456;48.436;10.028;2023-05-10T06:38:14;7.38;;;2.40;;
67675;SDS011;54456;48.436;10.028;2023-05-10T06:40:40;7.32;;;2.47;;
67675;SDS011;54456;48.436;10.028;2023-05-10T06:43:04;5.55;;;2.15;;
67675;SDS011;54456;48.436;10.028;2023-05-10T06:45:27;7.47;;;2.42;;
67675;SDS011;54456;48.436;10.028;2023-05-10T06:47:50;7.30;;;2.00;;
67675;SDS011;54456;48.436;10.028;2023-05-10T06:50:16;7.97;;;2.10;;
67675;SDS011;54456;48.436;10.028;2023-05-10T06:52:39;6.78;;;2.20;;
67675;SDS011;54456;48.436;10.028;2023-05-10T06:55:03;6.45;;;2.00;;
67675;SDS011;54456;48.436;10.028;2023-05-10T06:57:26;6.85;;;2.08;;
67675;SDS011;54456;48.436;10.028;2023-05-10T06:59:49;5.28;;;1.80;;
67675;SDS011;54456;48.436;10.028;2023-05-10T07:02:13;6.90;;;1.63;;
67675;SDS011;54456;48.436;10.028;2023-05-10T07:04:37;6.25;;;1.80;;
67675;SDS011;54456;48.436;10.028;2023-05-10T07:07:00;4.97;;;1.98;;
67675;SDS011;54456;48.436;10.028;2023-05-10T07:09:23;5.95;;;2.08;;
67675;SDS011;54456;48.436;10.028;2023-05-10T07:11:47;6.65;;;2.15;;
67675;SDS011;54456;48.436;10.028;2023-05-10T07:14:10;4.50;;;1.70;;
67675;SDS011;54456;48.436;10.028;2023-05-10T07:16:33;6.15;;;1.90;;
67675;SDS011;54456;48.436;10.028;2023-05-10T07:18:56;5.13;;;1.60;;
67675;SDS011;54456;48.436;10.028;2023-05-10T07:21:19;5.18;;;1.92;;
67675;SDS011;54456;48.436;10.028;2023-05-10T07:23:42;6.00;;;2.28;;
67675;SDS011;54456;48.436;10.028;2023-05-10T07:26:06;4.43;;;1.70;;
67675;SDS011;54456;48.436;10.028;2023-05-10T07:28:29;4.20;;;1.70;;
67675;SDS011;54456;48.436;10.028;2023-05-10T07:30:52;4.65;;;1.70;;
67675;SDS011;54456;48.436;10.028;2023-05-10T07:33:18;4.43;;;1.50;;
67675;SDS011;54456;48.436;10.028;2023-05-10T07:35:56;4.72;;;1.55;;
67675;SDS011;54456;48.436;10.028;2023-05-10T07:38:19;5.28;;;1.70;;
67675;SDS011;54456;48.436;10.028;2023-05-10T07:40:42;3.05;;;1.45;;
67675;SDS011;54456;48.436;10.028;2023-05-10T07:43:05;4.65;;;1.48;;
67675;SDS011;54456;48.436;10.028;2023-05-10T07:45:33;4.07;;;1.45;;
67675;SDS011;54456;48.436;10.028;2023-05-10T07:47:58;4.72;;;1.67;;
67675;SDS011;54456;48.436;10.028;2023-05-10T07:50:33;4.35;;;1.58;;
67675;SDS011;54456;48.436;10.028;2023-05-10T07:53:01;6.55;;;2.20;;
67675;SDS011;54456;48.436;10.028;2023-05-10T07:55:24;5.32;;;1.70;;
67675;SDS011;54456;48.436;10.028;2023-05-10T07:58:04;6.00;;;2.13;;
67675;SDS011;54456;48.436;10.028;2023-05-10T08:00:33;6.88;;;1.85;;
67675;SDS011;54456;48.436;10.028;2023-05-10T08:02:57;4.80;;;1.60;;
67675;SDS011;54456;48.436;10.028;2023-05-10T08:05:23;5.55;;;1.70;;
67675;SDS011;54456;48.436;10.028;2023-05-10T08:07:57;5.22;;;1.63;;
67675;SDS011;54456;48.436;10.028;2023-05-10T08:10:57;3.75;;;1.45;;
67675;SDS011;54456;48.436;10.028;2023-05-10T08:13:20;2.88;;;1.30;;
67675;SDS011;54456;48.436;10.028;2023-05-10T08:15:43;5.03;;;1.45;;
67675;SDS011;54456;48.436;10.028;2023-05-10T08:18:06;3.13;;;1.38;;
67675;SDS011;54456;48.436;10.028;2023-05-10T08:20:29;3.33;;;1.33;;
67675;SDS011;54456;48.436;10.028;2023-05-10T08:22:52;4.20;;;1.30;;
67675;SDS011;54456;48.436;10.028;2023-05-10T08:25:15;3.03;;;1.50;;
67675;SDS011;54456;48.436;10.028;2023-05-10T08:27:37;4.57;;;1.30;;
67675;SDS011;54456;48.436;10.028;2023-05-10T08:30:00;4.75;;;1.50;;
67675;SDS011;54456;48.436;10.028;2023-05-10T08:32:23;3.03;;;1.30;;
67675;SDS011;54456;48.436;10.028;2023-05-10T08:34:47;2.72;;;1.30;;
67675;SDS011;54456;48.436;10.028;2023-05-10T08:37:11;2.88;;;1.13;;
67675;SDS011;54456;48.436;10.028;2023-05-10T08:39:34;3.03;;;1.48;;
67675;SDS011;54456;48.436;10.028;2023-05-10T08:41:58;2.63;;;1.30;;
67675;SDS011;54456;48.436;10.028;2023-05-10T08:44:36;2.75;;;1.30;;
67675;SDS011;54456;48.436;10.028;2023-05-10T08:46:59;2.25;;;1.00;;
67675;SDS011;54456;48.436;10.028;2023-05-10T08:49:25;2.78;;;1.27;;
67675;SDS011;54456;48.436;10.028;2023-05-10T08:51:51;2.38;;;1.20;;
67675;SDS011;54456;48.436;10.028;2023-05-10T08:54:14;3.75;;;1.10;;
67675;SDS011;54456;48.436;10.028;2023-05-10T08:56:37;3.25;;;1.20;;
67675;SDS011;54456;48.436;10.028;2023-05-10T08:59:00;2.85;;;1.30;;
67675;SDS011;54456;48.436;10.028;2023-05-10T09:01:24;4.68;;;1.30;;
67675;SDS011;54456;48.436;10.028;2023-05-10T09:03:48;3.35;;;1.10;;
67675;SDS011;54456;48.436;10.028;2023-05-10T09:06:11;2.90;;;1.10;;
67675;SDS011;54456;48.436;10.028;2023-05-10T09:08:36;2.17;;;1.00;;
67675;SDS011;54456;48.436;10.028;2023-05-10T09:10:59;2.45;;;1.00;;
67675;SDS011;54456;48.436;10.028;2023-05-10T09:13:23;1.67;;;0.93;;
67675;SDS011;54456;48.436;10.028;2023-05-10T09:15:46;2.40;;;1.17;;
67675;SDS011;54456;48.436;10.028;2023-05-10T09:18:09;1.13;;;0.90;;
67675;SDS011;54456;48.436;10.028;2023-05-10T09:20:32;2.55;;;1.00;;
67675;SDS011;54456;48.436;10.028;2023-05-10T09:22:55;1.98;;;0.90;;
67675;SDS011;54456;48.436;10.028;2023-05-10T09:25:20;1.52;;;0.80;;
67675;SDS011;54456;48.436;10.028;2023-05-10T09:27:44;1.92;;;0.90;;
67675;SDS011;54456;48.436;10.028;2023-05-10T09:30:28;1.70;;;1.00;;
67675;SDS011;54456;48.436;10.028;2023-05-10T09:32:52;3.22;;;1.00;;
67675;SDS011;54456;48.436;10.028;2023-05-10T09:35:16;1.08;;;0.82;;
67675;SDS011;54456;48.436;10.028;2023-05-10T09:37:40;1.67;;;0.70;;
67675;SDS011;54456;48.436;10.028;2023-05-10T09:40:15;2.53;;;0.80;;
67675;SDS011;54456;48.436;10.028;2023-05-10T09:45:13;1.25;;;0.80;;
67675;SDS011;54456;48.436;10.028;2023-05-10T09:47:38;0.85;;;0.80;;
67675;SDS011;54456;48.436;10.028;2023-05-10T09:50:02;1.63;;;0.90;;
67675;SDS011;54456;48.436;10.028;2023-05-10T09:52:28;1.48;;;0.80;;
67675;SDS011;54456;48.436;10.028;2023-05-10T09:54:54;1.75;;;1.00;;
67675;SDS011;54456;48.436;10.028;2023-05-10T09:57:22;1.27;;;0.90;;
67675;SDS011;54456;48.436;10.028;2023-05-10T09:59:45;1.75;;;0.82;;
67675;SDS011;54456;48.436;10.028;2023-05-10T10:02:10;1.95;;;0.80;;
67675;SDS011;54456;48.436;10.028;2023-05-10T10:04:33;1.60;;;0.90;;
67675;SDS011;54456;48.436;10.028;2023-05-10T10:07:02;1.60;;;0.98;;
67675;SDS011;54456;48.436;10.028;2023-05-10T10:09:26;2.17;;;0.80;;
67675;SDS011;54456;48.436;10.028;2023-05-10T10:11:49;2.80;;;1.00;;
67675;SDS011;54456;48.436;10.028;2023-05-10T10:14:14;4.07;;;1.00;;
67675;SDS011;54456;48.436;10.028;2023-05-10T10:16:38;1.73;;;1.00;;
67675;SDS011;54456;48.436;10.028;2023-05-10T10:19:01;2.10;;;0.93;;
67675;SDS011;54456;48.436;10.028;2023-05-10T10:21:24;2.08;;;0.90;;
67675;SDS011;54456;48.436;10.028;2023-05-10T10:23:48;1.77;;;0.85;;
67675;SDS011;54456;48.436;10.028;2023-05-10T10:26:11;1.08;;;0.85;;
67675;SDS011;54456;48.436;10.028;2023-05-10T10:28:49;1.23;;;0.90;;
67675;SDS011;54456;48.436;10.028;2023-05-10T10:34:01;2.78;;;1.00;;
67675;SDS011;54456;48.436;10.028;2023-05-10T10:36:26;2.67;;;0.98;;
67675;SDS011;54456;48.436;10.028;2023-05-10T10:41:34;2.42;;;1.02;;
67675;SDS011;54456;48.436;10.028;2023-05-10T10:52:25;2.67;;;0.88;;
67675;SDS011;54456;48.436;10.028;2023-05-10T10:54:51;1.35;;;0.90;;
67675;SDS011;54456;48.436;10.028;2023-05-10T10:57:18;1.42;;;0.90;;
67675;SDS011;54456;48.436;10.028;2023-05-10T10:59:42;1.75;;;0.82;;
67675;SDS011;54456;48.436;10.028;2023-05-10T11:02:06;2.45;;;0.95;;
67675;SDS011;54456;48.436;10.028;2023-05-10T11:04:31;1.33;;;0.90;;
67675;SDS011;54456;48.436;10.028;2023-05-10T11:07:16;1.33;;;0.90;;
67675;SDS011;54456;48.436;10.028;2023-05-10T11:09:39;2.85;;;1.10;;
67675;SDS011;54456;48.436;10.028;2023-05-10T11:12:07;1.73;;;0.95;;
67675;SDS011;54456;48.436;10.028;2023-05-10T11:14:34;2.17;;;1.00;;
67675;SDS011;54456;48.436;10.028;2023-05-10T11:17:22;3.70;;;1.10;;
67675;SDS011;54456;48.436;10.028;2023-05-10T11:20:07;1.85;;;1.00;;
67675;SDS011;54456;48.436;10.028;2023-05-10T11:22:48;2.47;;;1.10;;
67675;SDS011;54456;48.436;10.028;2023-05-10T11:25:14;1.55;;;1.00;;
67675;SDS011;54456;48.436;10.028;2023-05-10T11:27:41;2.53;;;1.13;;
67675;SDS011;54456;48.436;10.028;2023-05-10T11:30:05;3.42;;;1.30;;
67675;SDS011;54456;48.436;10.028;2023-05-10T11:32:28;2.95;;;1.10;;
67675;SDS011;54456;48.436;10.028;2023-05-10T11:34:52;3.30;;;1.27;;
67675;SDS011;54456;48.436;10.028;2023-05-10T11:37:15;2.85;;;1.35;;
67675;SDS011;54456;48.436;10.028;2023-05-10T11:39:38;2.30;;;1.13;;
67675;SDS011;54456;48.436;10.028;2023-05-10T11:42:01;2.00;;;1.00;;
67675;SDS011;54456;48.436;10.028;2023-05-10T11:44:29;2.15;;;1.20;;
67675;SDS011;54456;48.436;10.028;2023-05-10T11:46:53;1.20;;;0.95;;
67675;SDS011;54456;48.436;10.028;2023-05-10T11:49:18;2.30;;;1.00;;
67675;SDS011;54456;48.436;10.028;2023-05-10T11:51:43;3.15;;;0.93;;
67675;SDS011;54456;48.436;10.028;2023-05-10T11:54:10;2.53;;;1.00;;
67675;SDS011;54456;48.436;10.028;2023-05-10T11:56:33;1.65;;;1.00;;
67675;SDS011;54456;48.436;10.028;2023-05-10T11:58:58;1.85;;;1.00;;
67675;SDS011;54456;48.436;10.028;2023-05-10T12:01:25;1.52;;;0.90;;
67675;SDS011;54456;48.436;10.028;2023-05-10T12:03:49;2.15;;;1.10;;
67675;SDS011;54456;48.436;10.028;2023-05-10T12:06:12;2.38;;;1.08;;
67675;SDS011;54456;48.436;10.028;2023-05-10T12:08:35;1.50;;;1.00;;
67675;SDS011;54456;48.436;10.028;2023-05-10T12:11:05;1.00;;;0.90;;
67675;SDS011;54456;48.436;10.028;2023-05-10T12:13:28;0.93;;;0.80;;
67675;SDS011;54456;48.436;10.028;2023-05-10T12:15:51;2.63;;;1.10;;
67675;SDS011;54456;48.436;10.028;2023-05-10T12:18:22;4.30;;;1.10;;
67675;SDS011;54456;48.436;10.028;2023-05-10T12:20:48;1.95;;;1.00;;
67675;SDS011;54456;48.436;10.028;2023-05-10T12:23:14;2.28;;;1.13;;
67675;SDS011;54456;48.436;10.028;2023-05-10T12:25:37;3.40;;;1.20;;
67675;SDS011;54456;48.436;10.028;2023-05-10T12:28:02;2.53;;;1.10;;
67675;SDS011;54456;48.436;10.028;2023-05-10T12:30:26;4.25;;;1.35;;
67675;SDS011;54456;48.436;10.028;2023-05-10T12:32:49;2.63;;;1.25;;
67675;SDS011;54456;48.436;10.028;2023-05-10T12:35:12;2.67;;;1.23;;
67675;SDS011;54456;48.436;10.028;2023-05-10T12:37:36;2.47;;;1.05;;
67675;SDS011;54456;48.436;10.028;2023-05-10T12:40:01;2.38;;;1.05;;
67675;SDS011;54456;48.436;10.028;2023-05-10T12:42:27;2.35;;;1.13;;
67675;SDS011;54456;48.436;10.028;2023-05-10T12:44:54;4.80;;;1.20;;
67675;SDS011;54456;48.436;10.028;2023-05-10T12:47:18;4.75;;;1.40;;
67675;SDS011;54456;48.436;10.028;2023-05-10T12:49:41;2.53;;;1.30;;
67675;SDS011;54456;48.436;10.028;2023-05-10T12:52:04;2.72;;;1.13;;
67675;SDS011;54456;48.436;10.028;2023-05-10T12:54:28;3.28;;;1.40;;
67675;SDS011;54456;48.436;10.028;2023-05-10T12:56:51;3.83;;;1.40;;
67675;SDS011;54456;48.436;10.028;2023-05-10T12:59:14;1.65;;;1.00;;
67675;SDS011;54456;48.436;10.028;2023-05-10T13:01:44;3.05;;;1.40;;
67675;SDS011;54456;48.436;10.028;2023-05-10T13:04:07;2.00;;;1.20;;
67675;SDS011;54456;48.436;10.028;2023-05-10T13:06:31;2.53;;;1.20;;
67675;SDS011;54456;48.436;10.028;2023-05-10T13:09:01;3.90;;;1.33;;
67675;SDS011;54456;48.436;10.028;2023-05-10T13:11:24;2.47;;;1.20;;
67675;SDS011;54456;48.436;10.028;2023-05-10T13:13:47;2.40;;;1.20;;
67675;SDS011;54456;48.436;10.028;2023-05-10T13:16:11;1.38;;;1.05;;
67675;SDS011;54456;48.436;10.028;2023-05-10T13:18:34;2.85;;;1.20;;
67675;SDS011;54456;48.436;10.028;2023-05-10T13:20:58;3.47;;;1.38;;
67675;SDS011;54456;48.436;10.028;2023-05-10T13:23:21;3.88;;;1.45;;
67675;SDS011;54456;48.436;10.028;2023-05-10T13:25:44;2.92;;;1.42;;
67675;SDS011;54456;48.436;10.028;2023-05-10T13:28:07;3.85;;;1.33;;
67675;SDS011;54456;48.436;10.028;2023-05-10T13:30:31;3.38;;;1.52;;
67675;SDS011;54456;48.436;10.028;2023-05-10T13:32:54;4.00;;;1.42;;
67675;SDS011;54456;48.436;10.028;2023-05-10T13:35:17;2.97;;;1.45;;
67675;SDS011;54456;48.436;10.028;2023-05-10T13:37:46;4.10;;;1.73;;
67675;SDS011;54456;48.436;10.028;2023-05-10T13:40:09;2.63;;;1.33;;
67675;SDS011;54456;48.436;10.028;2023-05-10T13:42:33;4.18;;;1.77;;
67675;SDS011;54456;48.436;10.028;2023-05-10T13:45:05;4.32;;;1.45;;
67675;SDS011;54456;48.436;10.028;2023-05-10T13:47:37;4.63;;;1.90;;
67675;SDS011;54456;48.436;10.028;2023-05-10T13:50:07;5.70;;;1.77;;
67675;SDS011;54456;48.436;10.028;2023-05-10T13:52:30;4.43;;;2.03;;
67675;SDS011;54456;48.436;10.028;2023-05-10T13:54:53;4.03;;;1.83;;
67675;SDS011;54456;48.436;10.028;2023-05-10T13:57:17;6.93;;;1.90;;
67675;SDS011;54456;48.436;10.028;2023-05-10T13:59:40;5.88;;;2.00;;
67675;SDS011;54456;48.436;10.028;2023-05-10T14:02:06;5.03;;;1.80;;
67675;SDS011;54456;48.436;10.028;2023-05-10T14:04:29;5.20;;;2.00;;
67675;SDS011;54456;48.436;10.028;2023-05-10T14:06:53;4.97;;;1.92;;
67675;SDS011;54456;48.436;10.028;2023-05-10T14:09:16;4.50;;;1.70;;
67675;SDS011;54456;48.436;10.028;2023-05-10T14:11:39;5.43;;;2.15;;
67675;SDS011;54456;48.436;10.028;2023-05-10T14:14:02;7.60;;;2.58;;
67675;SDS011;54456;48.436;10.028;2023-05-10T14:16:25;5.25;;;2.20;;
67675;SDS011;54456;48.436;10.028;2023-05-10T14:18:49;5.70;;;2.03;;
67675;SDS011;54456;48.436;10.028;2023-05-10T14:21:12;5.55;;;2.10;;
67675;SDS011;54456;48.436;10.028;2023-05-10T14:23:35;5.47;;;2.20;;
67675;SDS011;54456;48.436;10.028;2023-05-10T14:25:59;6.25;;;2.22;;
67675;SDS011;54456;48.436;10.028;2023-05-10T14:28:23;5.60;;;2.35;;
67675;SDS011;54456;48.436;10.028;2023-05-10T14:30:49;5.78;;;2.33;;
67675;SDS011;54456;48.436;10.028;2023-05-10T14:33:16;6.32;;;2.20;;
67675;SDS011;54456;48.436;10.028;2023-05-10T14:35:42;5.63;;;2.10;;
67675;SDS011;54456;48.436;10.028;2023-05-10T14:38:08;6.68;;;2.03;;
67675;SDS011;54456;48.436;10.028;2023-05-10T14:40:31;4.90;;;2.10;;
67675;SDS011;54456;48.436;10.028;2023-05-10T14:42:54;7.25;;;2.20;;
67675;SDS011;54456;48.436;10.028;2023-05-10T14:45:17;5.88;;;2.13;;
67675;SDS011;54456;48.436;10.028;2023-05-10T14:47:41;6.35;;;2.38;;
67675;SDS011;54456;48.436;10.028;2023-05-10T14:50:04;4.80;;;2.40;;
67675;SDS011;54456;48.436;10.028;2023-05-10T14:52:30;6.25;;;2.67;;
67675;SDS011;54456;48.436;10.028;2023-05-10T14:54:53;6.68;;;2.25;;
67675;SDS011;54456;48.436;10.028;2023-05-10T14:57:16;7.10;;;2.95;;
67675;SDS011;54456;48.436;10.028;2023-05-10T14:59:42;9.75;;;3.08;;
67675;SDS011;54456;48.436;10.028;2023-05-10T15:02:05;6.07;;;2.53;;
67675;SDS011;54456;48.436;10.028;2023-05-10T15:04:31;7.85;;;3.00;;
67675;SDS011;54456;48.436;10.028;2023-05-10T15:06:57;7.90;;;3.30;;
67675;SDS011;54456;48.436;10.028;2023-05-10T15:09:20;11.38;;;4.43;;
67675;SDS011;54456;48.436;10.028;2023-05-10T15:11:43;11.45;;;4.60;;
67675;SDS011;54456;48.436;10.028;2023-05-10T15:14:07;11.90;;;5.07;;
67675;SDS011;54456;48.436;10.028;2023-05-10T15:16:33;11.15;;;4.60;;
67675;SDS011;54456;48.436;10.028;2023-05-10T15:18:55;11.75;;;4.38;;
67675;SDS011;54456;48.436;10.028;2023-05-10T15:21:19;11.43;;;5.90;;
67675;SDS011;54456;48.436;10.028;2023-05-10T15:23:42;10.38;;;4.55;;
67675;SDS011;54456;48.436;10.028;2023-05-10T15:26:05;9.52;;;4.32;;
67675;SDS011;54456;48.436;10.028;2023-05-10T15:28:28;11.82;;;5.57;;
67675;SDS011;54456;48.436;10.028;2023-05-10T15:30:51;8.75;;;3.70;;
67675;SDS011;54456;48.436;10.028;2023-05-10T15:33:14;11.27;;;4.18;;
67675;SDS011;54456;48.436;10.028;2023-05-10T15:35:37;12.00;;;4.82;;
67675;SDS011;54456;48.436;10.028;2023-05-10T15:38:01;8.40;;;4.00;;
67675;SDS011;54456;48.436;10.028;2023-05-10T15:40:24;9.57;;;4.22;;
67675;SDS011;54456;48.436;10.028;2023-05-10T15:42:47;12.60;;;4.47;;
67675;SDS011;54456;48.436;10.028;2023-05-10T15:45:10;10.35;;;3.42;;
67675;SDS011;54456;48.436;10.028;2023-05-10T15:47:35;9.38;;;3.50;;
67675;SDS011;54456;48.436;10.028;2023-05-10T15:50:01;14.48;;;4.40;;
67675;SDS011;54456;48.436;10.028;2023-05-10T15:52:24;9.63;;;3.72;;
67675;SDS011;54456;48.436;10.028;2023-05-10T15:54:46;12.77;;;4.60;;
67675;SDS011;54456;48.436;10.028;2023-05-10T15:57:10;10.70;;;4.45;;
67675;SDS011;54456;48.436;10.028;2023-05-10T15:59:33;9.13;;;4.32;;
67675;SDS011;54456;48.436;10.028;2023-05-10T16:01:56;11.13;;;4.35;;
67675;SDS011;54456;48.436;10.028;2023-05-10T16:04:18;9.93;;;4.07;;
67675;SDS011;54456;48.436;10.028;2023-05-10T16:06:42;9.32;;;4.20;;
67675;SDS011;54456;48.436;10.028;2023-05-10T16:09:05;9.88;;;3.80;;
67675;SDS011;54456;48.436;10.028;2023-05-10T16:11:28;9.70;;;3.67;;
67675;SDS011;54456;48.436;10.028;2023-05-10T16:13:51;10.20;;;3.92;;
67675;SDS011;54456;48.436;10.028;2023-05-10T16:16:14;9.15;;;3.70;;
67675;SDS011;54456;48.436;10.028;2023-05-10T16:18:37;8.38;;;3.85;;
67675;SDS011;54456;48.436;10.028;2023-05-10T16:21:00;8.65;;;3.38;;
67675;SDS011;54456;48.436;10.028;2023-05-10T16:23:23;10.70;;;3.72;;
67675;SDS011;54456;48.436;10.028;2023-05-10T16:25:46;8.02;;;3.63;;
67675;SDS011;54456;48.436;10.028;2023-05-10T16:28:09;9.07;;;3.58;;
67675;SDS011;54456;48.436;10.028;2023-05-10T16:30:33;9.45;;;3.88;;
67675;SDS011;54456;48.436;10.028;2023-05-10T16:32:56;8.85;;;3.80;;
67675;SDS011;54456;48.436;10.028;2023-05-10T16:35:19;9.35;;;3.83;;
67675;SDS011;54456;48.436;10.028;2023-05-10T16:37:42;11.75;;;4.05;;
67675;SDS011;54456;48.436;10.028;2023-05-10T16:40:05;12.30;;;4.00;;
67675;SDS011;54456;48.436;10.028;2023-05-10T16:42:30;9.00;;;4.05;;
67675;SDS011;54456;48.436;10.028;2023-05-10T16:44:53;7.47;;;3.50;;
67675;SDS011;54456;48.436;10.028;2023-05-10T16:47:16;11.45;;;4.53;;
67675;SDS011;54456;48.436;10.028;2023-05-10T16:49:39;13.07;;;5.10;;
67675;SDS011;54456;48.436;10.028;2023-05-10T16:52:02;15.48;;;6.47;;
67675;SDS011;54456;48.436;10.028;2023-05-10T16:54:25;16.60;;;8.10;;
67675;SDS011;54456;48.436;10.028;2023-05-10T16:56:48;19.50;;;9.38;;
67675;SDS011;54456;48.436;10.028;2023-05-10T16:59:11;16.02;;;7.82;;
67675;SDS011;54456;48.436;10.028;2023-05-10T17:01:34;18.67;;;8.55;;
67675;SDS011;54456;48.436;10.028;2023-05-10T17:03:57;16.55;;;8.32;;
67675;SDS011;54456;48.436;10.028;2023-05-10T17:06:22;17.73;;;8.02;;
67675;SDS011;54456;48.436;10.028;2023-05-10T17:08:45;17.67;;;7.88;;
67675;SDS011;54456;48.436;10.028;2023-05-10T17:11:08;17.35;;;7.75;;
67675;SDS011;54456;48.436;10.028;2023-05-10T17:13:33;14.65;;;6.95;;
67675;SDS011;54456;48.436;10.028;2023-05-10T17:15:55;13.48;;;5.72;;
67675;SDS011;54456;48.436;10.028;2023-05-10T17:18:21;11.90;;;5.22;;
67675;SDS011;54456;48.436;10.028;2023-05-10T17:20:44;10.45;;;3.95;;
67675;SDS011;54456;48.436;10.028;2023-05-10T17:23:07;8.98;;;4.20;;
67675;SDS011;54456;48.436;10.028;2023-05-10T17:25:30;9.63;;;3.60;;
67675;SDS011;54456;48.436;10.028;2023-05-10T17:27:53;10.85;;;4.07;;
67675;SDS011;54456;48.436;10.028;2023-05-10T17:30:16;10.63;;;3.80;;
67675;SDS011;54456;48.436;10.028;2023-05-10T17:32:39;9.45;;;3.78;;
67675;SDS011;54456;48.436;10.028;2023-05-10T17:35:01;9.23;;;3.45;;
67675;SDS011;54456;48.436;10.028;2023-05-10T17:37:25;8.60;;;3.60;;
67675;SDS011;54456;48.436;10.028;2023-05-10T17:39:48;8.75;;;3.45;;
67675;SDS011;54456;48.436;10.028;2023-05-10T17:42:11;10.15;;;4.28;;
67675;SDS011;54456;48.436;10.028;2023-05-10T17:44:33;8.73;;;3.42;;
67675;SDS011;54456;48.436;10.028;2023-05-10T17:46:56;8.82;;;3.97;;
67675;SDS011;54456;48.436;10.028;2023-05-10T17:49:19;9.77;;;3.92;;